Pays
Station

 

Conditions  météo  pour  Ithaca/Tompkins County  -  Etats-Unis    Etats-Unis

  
18 °C
    
 
 

METAR pour Ithaca/Tompkins County :

KITH 232156Z 19014G19KT 10SM SCT055 BKN070 18/10 A2975 RMK AO2 RAB35E49 SLP075 P0000 T01830100

 

Voici le bulletin pour Ithaca/Tompkins County - Etats-Unis.
 
Le bulletin a été fait il y a 49 minutes, à 21:56 UTC .
Le vent soufflait à la vitesse de 7.2 mètres par seconde avec des rafales jusqu'à 9.8 mètres par seconde de Sud (190°).
 
La température était de 18 °C, avec un point de rosée à 10 °C.
La pression atmosphérique était de 1007 hPa.
L'humidité relative était de 59.5%.
 
Il y avait 3 à 4/8ème de nébulosité à une hauteur de 1676 mètres et 5 à 7/8ème de nébulosité à une hauteur de 2134 mètres.
 
La visibilité globale était de 16.1 kilomètres.
 

 
 
 

Pays :   A   B   C   D   E   F   G   H   I   J   K   L   M   N   O   P   Q   R   S   T   U   V   W   Y   Z

 

Partenaires :  Info Météo avec Met'info
Météo Marine avec MeteoMarine.net
Infos Site  |  Infos Légales  |  Crédits  |  Confidentialité
Contactez-nous  |  Ajouter aux favoris
© 2013-2019 METAR - Tous droits réservés